createdAt,value
2022-07-27T00:01:10.762Z,1.27
2022-07-27T00:03:39.270Z,1.40
2022-07-27T00:06:07.893Z,1.27
2022-07-27T00:08:36.615Z,1.67
2022-07-27T00:11:06.636Z,1.60
2022-07-27T00:13:35.044Z,1.57
2022-07-27T00:16:03.522Z,1.50
2022-07-27T00:18:32.138Z,1.33
2022-07-27T00:21:01.431Z,1.50
2022-07-27T00:23:29.867Z,1.50
2022-07-27T00:25:58.735Z,1.60
2022-07-27T00:28:28.535Z,1.50
2022-07-27T00:30:56.965Z,1.50
2022-07-27T00:33:25.413Z,1.33
2022-07-27T00:35:53.785Z,1.70
2022-07-27T00:38:22.205Z,1.47
2022-07-27T00:40:50.577Z,1.40
2022-07-27T00:43:19.169Z,1.60
2022-07-27T00:45:48.911Z,1.60
2022-07-27T00:48:17.340Z,1.63
2022-07-27T00:50:45.921Z,1.83
2022-07-27T00:53:14.520Z,1.77
2022-07-27T00:55:43.115Z,1.80
2022-07-27T00:58:11.523Z,1.47
2022-07-27T01:00:40.283Z,1.57
2022-07-27T01:03:10.267Z,1.90
2022-07-27T01:05:42.549Z,1.80
2022-07-27T01:08:12.576Z,1.87
2022-07-27T01:10:41.461Z,2.20
2022-07-27T01:13:13.155Z,2.27
2022-07-27T01:15:42.050Z,2.20
2022-07-27T01:18:16.272Z,1.97
2022-07-27T01:20:44.818Z,1.97
2022-07-27T01:23:14.585Z,1.70
2022-07-27T01:25:43.739Z,2.07
2022-07-27T01:28:12.185Z,1.80
2022-07-27T01:30:40.566Z,2.00
2022-07-27T01:33:09.757Z,2.20
2022-07-27T01:35:38.795Z,1.70
2022-07-27T01:38:07.781Z,2.03
2022-07-27T01:40:37.972Z,1.90
2022-07-27T01:43:06.543Z,2.03
2022-07-27T01:45:34.963Z,1.80
2022-07-27T01:48:03.619Z,1.67
2022-07-27T01:50:32.031Z,1.83
2022-07-27T01:53:00.467Z,2.20
2022-07-27T01:55:35.820Z,1.77
2022-07-27T01:58:09.471Z,1.90
2022-07-27T02:00:38.306Z,2.20
2022-07-27T02:03:07.970Z,1.97
2022-07-27T02:05:36.978Z,2.40
2022-07-27T02:08:05.616Z,2.10
2022-07-27T02:10:34.264Z,1.93
2022-07-27T02:13:01.780Z,1.97
2022-07-27T02:15:54.694Z,2.37
2022-07-27T02:18:33.153Z,2.20
2022-07-27T02:21:05.967Z,1.90
2022-07-27T02:23:34.618Z,2.20
2022-07-27T02:26:03.012Z,2.27
2022-07-27T02:28:31.441Z,2.37
2022-07-27T02:31:01.270Z,2.83
2022-07-27T02:33:29.723Z,2.90
2022-07-27T02:35:58.182Z,2.37
2022-07-27T02:38:27.003Z,2.00
2022-07-27T02:40:55.415Z,1.93
2022-07-27T02:43:23.860Z,2.27
2022-07-27T02:45:52.349Z,2.30
2022-07-27T02:48:22.137Z,2.20
2022-07-27T02:50:50.520Z,2.13
2022-07-27T02:53:18.939Z,2.10
2022-07-27T02:55:47.382Z,2.00
2022-07-27T02:58:15.816Z,2.50
2022-07-27T03:00:44.184Z,2.60
2022-07-27T03:03:12.617Z,2.10
2022-07-27T03:05:42.360Z,2.17
2022-07-27T03:08:10.862Z,2.10
2022-07-27T03:10:39.788Z,2.10
2022-07-27T03:13:08.324Z,2.30
2022-07-27T03:15:36.847Z,2.20
2022-07-27T03:18:05.715Z,2.10
2022-07-27T03:20:34.135Z,2.47
2022-07-27T03:23:03.943Z,2.20
2022-07-27T03:25:32.488Z,2.60
2022-07-27T03:28:04.237Z,2.20
2022-07-27T03:30:33.361Z,2.30
2022-07-27T03:33:01.792Z,1.97
2022-07-27T03:35:30.418Z,2.40
2022-07-27T03:37:58.801Z,2.23
2022-07-27T03:40:29.631Z,2.40
2022-07-27T03:42:58.252Z,2.53
2022-07-27T03:45:26.890Z,2.40
2022-07-27T03:47:55.416Z,2.50
2022-07-27T03:50:24.218Z,2.40
2022-07-27T03:52:55.496Z,2.37
2022-07-27T03:55:24.040Z,2.33
2022-07-27T03:57:53.795Z,2.10
2022-07-27T04:00:22.263Z,2.17
2022-07-27T04:02:50.682Z,2.20
2022-07-27T04:05:20.838Z,2.07
2022-07-27T04:07:49.205Z,1.70
2022-07-27T04:10:23.486Z,2.37
2022-07-27T04:12:55.314Z,2.10
2022-07-27T04:15:25.686Z,2.40
2022-07-27T04:17:57.345Z,3.03
2022-07-27T04:20:26.849Z,2.33
2022-07-27T04:22:55.375Z,2.20
2022-07-27T04:25:23.851Z,2.30
2022-07-27T04:27:54.584Z,2.47
2022-07-27T04:30:24.820Z,2.40
2022-07-27T04:32:53.708Z,2.87
2022-07-27T04:35:26.341Z,3.00
2022-07-27T04:37:58.983Z,2.90
2022-07-27T04:40:28.534Z,2.60
2022-07-27T04:42:56.924Z,2.60
2022-07-27T04:45:26.793Z,2.70
2022-07-27T04:47:55.209Z,2.93
2022-07-27T04:50:23.767Z,2.70
2022-07-27T04:52:52.135Z,3.10
2022-07-27T04:55:20.556Z,2.90
2022-07-27T04:57:48.926Z,2.80
2022-07-27T05:00:17.941Z,2.90
2022-07-27T05:02:47.731Z,2.60
2022-07-27T05:05:16.203Z,3.40
2022-07-27T05:07:44.584Z,3.40
2022-07-27T05:10:17.980Z,3.00
2022-07-27T05:12:48.376Z,4.27
2022-07-27T05:15:16.923Z,3.17
2022-07-27T05:17:45.347Z,3.13
2022-07-27T05:20:15.576Z,3.10
2022-07-27T05:22:43.963Z,3.20
2022-07-27T05:25:12.925Z,2.90
2022-07-27T05:27:53.816Z,3.13
2022-07-27T05:30:23.440Z,3.20
2022-07-27T05:32:51.807Z,3.03
2022-07-27T05:35:21.791Z,3.30
2022-07-27T05:37:50.228Z,2.93
2022-07-27T05:40:18.694Z,2.67
2022-07-27T05:42:47.071Z,2.80
2022-07-27T05:45:15.544Z,3.20
2022-07-27T05:47:43.918Z,3.20
2022-07-27T05:50:12.350Z,2.90
2022-07-27T05:52:42.167Z,2.60
2022-07-27T05:55:11.160Z,2.97
2022-07-27T05:57:40.953Z,2.60
2022-07-27T06:00:10.390Z,2.60
2022-07-27T06:02:38.817Z,2.57
2022-07-27T06:05:11.824Z,2.63
2022-07-27T06:07:59.011Z,2.17
2022-07-27T06:10:27.695Z,2.10
2022-07-27T06:12:56.142Z,2.30
2022-07-27T06:15:25.179Z,2.00
2022-07-27T06:17:54.085Z,2.40
2022-07-27T06:20:23.271Z,2.60
2022-07-27T06:22:53.572Z,2.30
2022-07-27T06:25:22.403Z,1.90
2022-07-27T06:27:51.229Z,2.10
2022-07-27T06:30:20.687Z,1.97
2022-07-27T06:32:49.397Z,1.60
2022-07-27T06:35:18.356Z,1.70
2022-07-27T06:37:52.769Z,1.80
2022-07-27T06:40:25.316Z,1.70
2022-07-27T06:42:55.751Z,1.70
2022-07-27T06:45:24.219Z,1.63
2022-07-27T06:47:52.599Z,2.00
2022-07-27T06:50:21.529Z,1.93
2022-07-27T06:52:49.987Z,1.40
2022-07-27T06:55:18.826Z,1.87
2022-07-27T06:57:48.645Z,1.70
2022-07-27T07:00:17.266Z,1.50
2022-07-27T07:02:55.392Z,1.40
2022-07-27T07:05:24.359Z,1.45
2022-07-27T07:07:52.881Z,1.48
2022-07-27T07:10:23.797Z,1.83
2022-07-27T07:12:56.092Z,1.40
2022-07-27T07:15:25.545Z,2.00
2022-07-27T07:17:54.421Z,1.60
2022-07-27T07:20:23.044Z,1.40
2022-07-27T07:22:51.473Z,1.55
2022-07-27T07:25:19.903Z,1.65
2022-07-27T07:27:48.285Z,1.73
2022-07-27T07:30:18.094Z,1.50
2022-07-27T07:32:46.604Z,1.20
2022-07-27T07:35:15.307Z,1.30
2022-07-27T07:37:43.796Z,1.30
2022-07-27T07:43:02.600Z,1.65
2022-07-27T07:45:33.602Z,1.10
2022-07-27T07:48:01.987Z,1.38
2022-07-27T07:50:30.417Z,1.40
2022-07-27T07:52:59.022Z,1.35
2022-07-27T07:55:28.570Z,1.20
2022-07-27T07:57:59.988Z,1.10
2022-07-27T08:00:28.424Z,1.40
2022-07-27T08:02:59.034Z,1.10
2022-07-27T08:05:27.929Z,1.40
2022-07-27T08:07:56.362Z,1.35
2022-07-27T08:10:24.906Z,1.05
2022-07-27T08:12:54.483Z,1.25
2022-07-27T08:15:34.678Z,1.08
2022-07-27T08:18:06.377Z,1.15
2022-07-27T08:20:35.478Z,1.08
2022-07-27T08:23:04.969Z,1.17
2022-07-27T08:25:33.485Z,1.20
2022-07-27T08:28:02.846Z,1.20
2022-07-27T08:30:32.338Z,1.45
2022-07-27T08:33:02.714Z,1.00
2022-07-27T08:35:33.068Z,1.25
2022-07-27T08:38:01.924Z,1.08
2022-07-27T08:40:41.155Z,1.30
2022-07-27T08:43:11.082Z,1.05
2022-07-27T08:45:41.622Z,0.90
2022-07-27T08:48:13.970Z,1.00
2022-07-27T08:50:44.160Z,0.93
2022-07-27T08:53:13.513Z,1.13
2022-07-27T08:55:42.687Z,0.95
2022-07-27T08:58:11.895Z,1.08
2022-07-27T09:00:41.085Z,1.23
2022-07-27T09:03:13.212Z,0.95
2022-07-27T09:05:46.491Z,0.95
2022-07-27T09:08:15.657Z,1.40
2022-07-27T09:10:44.440Z,1.23
2022-07-27T09:13:20.024Z,1.20
2022-07-27T09:16:16.167Z,1.30
2022-07-27T09:18:38.116Z,1.40
2022-07-27T09:21:11.861Z,0.90
2022-07-27T09:23:40.659Z,1.13
2022-07-27T09:26:29.298Z,1.30
2022-07-27T09:28:59.973Z,1.20
2022-07-27T09:31:28.749Z,1.10
2022-07-27T09:33:58.185Z,1.00
2022-07-27T09:36:29.282Z,1.15
2022-07-27T09:39:02.536Z,1.20
2022-07-27T09:41:42.533Z,1.10
2022-07-27T09:44:31.246Z,1.27
2022-07-27T09:46:59.803Z,1.60
2022-07-27T09:49:29.240Z,1.67
2022-07-27T09:52:01.409Z,1.30
2022-07-27T09:54:43.095Z,1.13
2022-07-27T09:57:11.755Z,1.08
2022-07-27T09:59:40.200Z,1.00
2022-07-27T10:02:09.244Z,1.10
2022-07-27T10:04:37.895Z,1.20
2022-07-27T10:07:12.873Z,1.10
2022-07-27T10:09:43.227Z,1.00
2022-07-27T10:12:11.921Z,1.00
2022-07-27T10:14:40.334Z,1.30
2022-07-27T10:17:13.013Z,1.25
2022-07-27T10:19:46.091Z,1.10
2022-07-27T10:22:16.200Z,1.30
2022-07-27T10:24:48.705Z,1.40
2022-07-27T10:27:22.313Z,0.77
2022-07-27T10:29:52.267Z,1.05
2022-07-27T10:32:27.103Z,1.00
2022-07-27T10:34:55.593Z,1.30
2022-07-27T10:37:28.850Z,1.50
2022-07-27T10:40:12.242Z,1.40
2022-07-27T10:42:40.848Z,1.23
2022-07-27T10:45:10.796Z,1.33
2022-07-27T10:47:43.141Z,1.20
2022-07-27T10:50:22.047Z,1.17
2022-07-27T10:52:52.705Z,1.10
2022-07-27T10:55:38.973Z,1.13
2022-07-27T10:58:39.828Z,1.17
2022-07-27T11:01:09.075Z,1.15
2022-07-27T11:03:47.606Z,1.05
2022-07-27T11:07:04.701Z,1.60
2022-07-27T11:10:00.018Z,1.60
2022-07-27T11:12:00.409Z,1.20
2022-07-27T11:14:31.686Z,1.10
2022-07-27T11:17:40.059Z,1.40
2022-07-27T11:19:53.717Z,1.25
2022-07-27T11:22:53.718Z,0.90
2022-07-27T11:25:20.761Z,1.10
2022-07-27T11:27:49.862Z,1.30
2022-07-27T11:30:25.122Z,1.00
2022-07-27T11:32:53.756Z,1.08
2022-07-27T11:35:22.540Z,1.08
2022-07-27T11:38:00.747Z,1.02
2022-07-27T11:40:58.034Z,1.02
2022-07-27T11:43:38.140Z,1.20
2022-07-27T11:46:14.042Z,1.40
2022-07-27T11:49:05.478Z,0.82
2022-07-27T11:51:35.949Z,1.23
2022-07-27T11:54:05.308Z,1.30
2022-07-27T11:56:36.022Z,0.90
2022-07-27T11:59:08.870Z,1.08
2022-07-27T12:01:39.215Z,0.93
2022-07-27T12:04:13.194Z,0.80
2022-07-27T12:06:42.428Z,0.50
2022-07-27T12:09:13.037Z,0.50
2022-07-27T12:11:54.216Z,0.40
2022-07-27T12:14:28.832Z,0.50
2022-07-27T12:17:08.804Z,0.50
2022-07-27T12:19:37.224Z,0.63
2022-07-27T12:22:05.722Z,0.90
2022-07-27T12:24:34.896Z,0.80
2022-07-27T12:27:06.758Z,0.70
2022-07-27T12:29:35.443Z,1.10
2022-07-27T12:32:05.493Z,1.00
2022-07-27T12:34:34.380Z,0.98
2022-07-27T12:37:02.930Z,1.00
2022-07-27T12:39:33.246Z,1.10
2022-07-27T12:42:07.785Z,1.27
2022-07-27T12:44:36.706Z,1.33
2022-07-27T12:47:22.769Z,1.10
2022-07-27T12:50:07.124Z,1.20
2022-07-27T12:52:36.328Z,1.27
2022-07-27T12:55:05.399Z,1.30
2022-07-27T12:57:54.505Z,1.13
2022-07-27T13:00:29.202Z,1.17
2022-07-27T13:03:02.302Z,1.20
2022-07-27T13:05:30.847Z,1.30
2022-07-27T13:07:59.289Z,1.25
2022-07-27T13:10:28.697Z,1.08
2022-07-27T13:12:59.120Z,1.13
2022-07-27T13:15:28.014Z,1.13
2022-07-27T13:17:56.440Z,1.15
2022-07-27T13:20:24.877Z,1.40
2022-07-27T13:22:54.629Z,1.10
2022-07-27T13:25:23.266Z,1.40
2022-07-27T13:27:52.385Z,1.40
2022-07-27T13:30:22.158Z,1.23
2022-07-27T13:32:50.561Z,1.10
2022-07-27T13:35:18.940Z,1.20
2022-07-27T13:37:47.379Z,1.38
2022-07-27T13:40:16.045Z,1.23
2022-07-27T13:42:44.738Z,1.23
2022-07-27T13:45:13.279Z,1.17
2022-07-27T13:47:43.160Z,1.20
2022-07-27T13:50:18.354Z,1.08
2022-07-27T13:52:48.556Z,1.30
2022-07-27T13:55:17.581Z,1.40
2022-07-27T13:57:46.738Z,1.27
2022-07-27T14:00:15.905Z,1.30
2022-07-27T14:02:46.195Z,1.25
2022-07-27T14:05:15.789Z,1.20
2022-07-27T14:07:44.673Z,1.02
2022-07-27T14:10:31.480Z,1.35
2022-07-27T14:13:07.846Z,1.42
2022-07-27T14:15:53.489Z,1.38
2022-07-27T14:18:24.683Z,1.00
2022-07-27T14:20:53.121Z,1.10
2022-07-27T14:23:21.511Z,1.20
2022-07-27T14:25:49.943Z,1.27
2022-07-27T14:28:18.370Z,1.40
2022-07-27T14:30:46.787Z,1.60
2022-07-27T14:33:15.224Z,1.40
2022-07-27T14:35:44.990Z,1.40
2022-07-27T14:38:13.527Z,1.33
2022-07-27T14:40:53.948Z,1.33
2022-07-27T14:43:22.794Z,1.60
2022-07-27T14:45:51.227Z,2.13
2022-07-27T14:48:28.469Z,1.23
2022-07-27T14:51:07.180Z,1.58
2022-07-27T14:53:35.595Z,1.40
2022-07-27T14:56:04.428Z,1.30
2022-07-27T14:58:33.076Z,1.40
2022-07-27T15:01:02.100Z,1.42
2022-07-27T15:03:30.582Z,1.52
2022-07-27T15:05:58.996Z,1.40
2022-07-27T15:08:28.910Z,1.40
2022-07-27T15:10:57.392Z,1.70
2022-07-27T15:13:26.079Z,1.38
2022-07-27T15:15:56.243Z,1.58
2022-07-27T15:18:24.720Z,1.15
2022-07-27T15:20:53.150Z,1.17
2022-07-27T15:23:22.370Z,1.20
2022-07-27T15:25:52.506Z,1.25
2022-07-27T15:28:20.976Z,1.30
2022-07-27T15:30:49.787Z,1.30
2022-07-27T15:33:18.239Z,1.25
2022-07-27T15:35:46.612Z,1.20
2022-07-27T15:38:15.043Z,1.35
2022-07-27T15:40:43.432Z,1.20
2022-07-27T15:43:14.121Z,1.30
2022-07-27T15:45:43.157Z,1.50
2022-07-27T15:48:12.452Z,1.27
2022-07-27T15:50:42.412Z,1.20
2022-07-27T15:53:11.301Z,1.10
2022-07-27T15:55:39.869Z,1.20
2022-07-27T15:58:08.718Z,1.27
2022-07-27T16:00:41.113Z,1.35
2022-07-27T16:03:10.623Z,1.30
2022-07-27T16:05:39.895Z,1.10
2022-07-27T16:08:09.707Z,1.65
2022-07-27T16:10:38.414Z,1.45
2022-07-27T16:13:06.958Z,1.25
2022-07-27T16:15:53.178Z,1.27
2022-07-27T16:18:23.466Z,1.40
2022-07-27T16:20:52.171Z,1.15
2022-07-27T16:23:21.637Z,1.00
2022-07-27T16:26:08.128Z,1.20
2022-07-27T16:28:38.930Z,1.50
2022-07-27T16:31:08.917Z,1.40
2022-07-27T16:33:38.831Z,1.23
2022-07-27T16:36:08.582Z,1.35
2022-07-27T16:38:37.752Z,1.50
2022-07-27T16:41:10.810Z,1.52
2022-07-27T16:43:39.834Z,1.40
2022-07-27T16:46:10.149Z,1.20
2022-07-27T16:48:42.477Z,1.30
2022-07-27T16:51:12.026Z,1.63
2022-07-27T16:53:41.157Z,1.40
2022-07-27T16:56:10.507Z,1.25
2022-07-27T16:58:40.877Z,1.27
2022-07-27T17:01:09.697Z,1.10
2022-07-27T17:03:51.583Z,1.13
2022-07-27T17:06:21.024Z,1.10
2022-07-27T17:08:49.637Z,1.50
2022-07-27T17:11:21.854Z,1.33
2022-07-27T17:13:51.032Z,1.70
2022-07-27T17:16:28.158Z,1.48
2022-07-27T17:18:59.131Z,1.27
2022-07-27T17:21:27.739Z,1.30
2022-07-27T17:23:56.164Z,1.27
2022-07-27T17:26:24.816Z,1.85
2022-07-27T17:28:53.789Z,1.60
2022-07-27T17:31:22.393Z,1.13
2022-07-27T17:33:51.267Z,1.20
2022-07-27T17:36:21.519Z,1.35
2022-07-27T17:38:50.785Z,1.45
2022-07-27T17:41:24.410Z,1.60
2022-07-27T17:43:53.571Z,1.50
2022-07-27T17:46:22.916Z,1.40
2022-07-27T17:48:53.084Z,1.40
2022-07-27T17:51:25.388Z,1.23
2022-07-27T17:53:54.345Z,1.23
2022-07-27T17:56:22.762Z,1.40
2022-07-27T17:58:51.601Z,1.20
2022-07-27T18:01:47.455Z,1.10
2022-07-27T18:04:09.160Z,1.10
2022-07-27T18:06:38.944Z,1.10
2022-07-27T18:09:08.736Z,1.50
2022-07-27T18:11:37.543Z,1.00
2022-07-27T18:14:06.075Z,1.20
2022-07-27T18:16:39.967Z,1.25
2022-07-27T18:19:09.271Z,1.30
2022-07-27T18:21:39.696Z,1.30
2022-07-27T18:24:10.479Z,1.10
2022-07-27T18:26:39.055Z,1.20
2022-07-27T18:29:07.754Z,1.20
2022-07-27T18:31:36.580Z,1.10
2022-07-27T18:34:10.626Z,1.20
2022-07-27T18:36:42.637Z,1.45
2022-07-27T18:39:11.440Z,1.23
2022-07-27T18:41:40.784Z,1.13
2022-07-27T18:44:18.205Z,1.40
2022-07-27T18:46:46.688Z,1.40
2022-07-27T18:49:16.748Z,1.42
2022-07-27T18:51:46.872Z,1.10
2022-07-27T18:54:15.477Z,1.33
2022-07-27T18:56:44.140Z,1.17
2022-07-27T18:59:12.812Z,1.33
2022-07-27T19:01:41.482Z,1.23
2022-07-27T19:04:09.927Z,1.25
2022-07-27T19:06:38.345Z,1.40
2022-07-27T19:09:08.089Z,1.50
2022-07-27T19:11:36.785Z,1.45
2022-07-27T19:14:05.179Z,1.80
2022-07-27T19:16:35.855Z,1.35
2022-07-27T19:19:07.770Z,1.45
2022-07-27T19:21:40.230Z,1.48
2022-07-27T19:24:11.085Z,1.10
2022-07-27T19:26:39.502Z,1.40
2022-07-27T19:29:08.133Z,1.40
2022-07-27T19:31:39.056Z,1.30
2022-07-27T19:34:07.492Z,1.15
2022-07-27T19:36:36.018Z,1.30
2022-07-27T19:39:07.884Z,1.20
2022-07-27T19:41:38.184Z,1.20
2022-07-27T19:44:07.036Z,1.30
2022-07-27T19:46:35.529Z,1.20
2022-07-27T19:49:04.067Z,1.20
2022-07-27T19:51:32.751Z,1.00
2022-07-27T19:54:01.330Z,1.33
2022-07-27T19:56:33.927Z,1.20
2022-07-27T19:59:06.773Z,1.20
2022-07-27T20:01:35.831Z,1.63
2022-07-27T20:04:07.494Z,1.42
2022-07-27T20:06:36.595Z,1.38
2022-07-27T20:09:05.518Z,1.20
2022-07-27T20:11:34.818Z,1.20
2022-07-27T20:14:03.534Z,1.00
2022-07-27T20:16:34.357Z,1.33
2022-07-27T20:19:02.940Z,1.43
2022-07-27T20:21:33.672Z,1.33
2022-07-27T20:24:03.362Z,1.20
2022-07-27T20:26:31.903Z,1.30
2022-07-27T20:29:01.249Z,1.50
2022-07-27T20:31:30.094Z,1.40
2022-07-27T20:33:59.905Z,1.57
2022-07-27T20:36:28.356Z,1.50
2022-07-27T20:38:59.043Z,1.37
2022-07-27T20:41:27.633Z,1.67
2022-07-27T20:43:56.218Z,1.53
2022-07-27T20:46:24.670Z,1.30
2022-07-27T20:48:53.135Z,1.30
2022-07-27T20:51:25.795Z,1.50
2022-07-27T20:53:56.163Z,1.30
2022-07-27T20:56:24.755Z,1.40
2022-07-27T20:58:53.220Z,1.40
2022-07-27T21:01:21.713Z,1.30
2022-07-27T21:03:50.139Z,1.13
2022-07-27T21:06:18.574Z,1.60
2022-07-27T21:08:48.327Z,1.30
2022-07-27T21:11:16.747Z,1.40
2022-07-27T21:13:45.148Z,1.40
2022-07-27T21:16:13.611Z,1.77
2022-07-27T21:18:42.007Z,1.30
2022-07-27T21:21:10.424Z,1.43
2022-07-27T21:23:57.073Z,1.53
2022-07-27T21:26:26.853Z,1.70
2022-07-27T21:28:55.668Z,1.60
2022-07-27T21:31:24.949Z,1.73
2022-07-27T21:33:53.419Z,1.23
2022-07-27T21:36:21.940Z,1.80
2022-07-27T21:38:51.884Z,1.40
2022-07-27T21:41:20.436Z,1.27
2022-07-27T21:43:50.172Z,1.23
2022-07-27T21:46:19.148Z,1.30
2022-07-27T21:48:48.642Z,1.40
2022-07-27T21:51:18.439Z,1.40
2022-07-27T21:53:46.923Z,1.40
2022-07-27T21:56:15.585Z,1.33
2022-07-27T21:58:45.786Z,1.53
2022-07-27T22:01:15.800Z,1.43
2022-07-27T22:03:44.274Z,1.40
2022-07-27T22:06:13.147Z,1.40
2022-07-27T22:08:41.520Z,1.30
2022-07-27T22:11:10.030Z,1.37
2022-07-27T22:13:38.408Z,1.60
2022-07-27T22:16:07.195Z,1.63
2022-07-27T22:18:36.966Z,1.30
2022-07-27T22:21:05.517Z,1.40
2022-07-27T22:23:33.902Z,1.40
2022-07-27T22:26:02.388Z,1.57
2022-07-27T22:28:30.780Z,1.23
2022-07-27T22:31:00.139Z,1.50
2022-07-27T22:33:49.203Z,1.70
2022-07-27T22:36:17.612Z,1.90
2022-07-27T22:38:46.370Z,1.50
2022-07-27T22:41:14.999Z,1.80
2022-07-27T22:43:43.438Z,1.47
2022-07-27T22:46:11.937Z,1.80
2022-07-27T22:48:40.411Z,1.50
2022-07-27T22:51:10.217Z,1.57
2022-07-27T22:53:38.613Z,1.50
2022-07-27T22:56:07.151Z,1.50
2022-07-27T22:58:35.529Z,1.60
2022-07-27T23:01:04.050Z,1.30
2022-07-27T23:03:32.463Z,1.77
2022-07-27T23:06:00.872Z,1.70
2022-07-27T23:08:30.640Z,1.40
2022-07-27T23:10:59.056Z,1.30
2022-07-27T23:13:33.882Z,1.70
2022-07-27T23:16:02.515Z,1.60
2022-07-27T23:18:31.001Z,1.53
2022-07-27T23:20:59.427Z,1.70
2022-07-27T23:23:27.851Z,1.70
2022-07-27T23:25:58.231Z,1.60
2022-07-27T23:28:26.634Z,1.60
2022-07-27T23:30:55.045Z,1.60
2022-07-27T23:33:23.532Z,1.77
2022-07-27T23:35:51.954Z,1.67
2022-07-27T23:38:20.319Z,1.60
2022-07-27T23:40:50.688Z,1.60
2022-07-27T23:43:20.442Z,1.70
2022-07-27T23:45:48.860Z,1.90
2022-07-27T23:48:17.376Z,1.70
2022-07-27T23:50:45.805Z,1.80
2022-07-27T23:53:15.524Z,1.83
2022-07-27T23:55:43.926Z,1.87
2022-07-27T23:58:12.600Z,1.50
